Time;durP1;ratioP1;P1;durP2;ratioP2;P2;SDS_P1;SDS_P2;PMS_P1;PMS_P2;Temp;Humidity;BMP_temperature;BMP_pressure;BME280_temperature;BME280_humidity;BME280_pressure;Samples;Min_cycle;Max_cycle;Signal;HPM_P1;HPM_P2
2021/04/08 11:04:05;;;;;;;0.20;0.20;;;;;;;14.67;47.06;94848.28;5063484;28;20409;-65
2021/04/08 11:06:32;;;;;;;2.05;0.30;;;;;;;15.49;45.70;94853.44;5048468;28;20029;-63
2021/04/08 11:08:57;;;;;;;2.13;0.20;;;;;;;16.31;44.35;94844.47;5040042;28;20033;-63
2021/04/08 11:11:27;;;;;;;0.20;0.20;;;;;;;17.00;42.98;94845.72;5064801;28;20045;-63
2021/04/08 11:13:52;;;;;;;0.55;0.30;;;;;;;17.63;42.02;94845.25;5042076;28;20024;-63
2021/04/08 11:16:18;;;;;;;0.20;0.20;;;;;;;18.16;41.27;94847.72;5031437;28;20033;-63
2021/04/08 11:18:44;;;;;;;0.45;0.20;;;;;;;18.62;40.33;94846.94;5044202;28;20029;-63
2021/04/08 11:21:15;;;;;;;0.20;0.20;;;;;;;19.04;40.25;94849.25;5042844;28;20124;-63
2021/04/08 11:23:41;;;;;;;;;;;;;;;19.37;40.23;94845.00;5055271;28;20040;-63
2021/04/08 11:26:08;;;;;;;0.10;0.10;;;;;;;19.66;39.26;94841.19;5080406;28;19967;-63
2021/04/08 11:28:43;;;;;;;0.15;0.13;;;;;;;19.94;38.30;94843.97;5040547;28;20025;-63
2021/04/08 11:31:14;;;;;;;0.20;0.20;;;;;;;20.19;38.49;94827.63;5048865;28;20062;-63
2021/04/08 11:33:39;;;;;;;0.45;0.30;;;;;;;20.37;37.87;94834.41;5027202;28;20020;-63
2021/04/08 11:36:18;;;;;;;0.10;0.10;;;;;;;20.58;38.08;94824.84;5041834;28;20070;-63
2021/04/08 11:38:45;;;;;;;0.35;0.28;;;;;;;20.73;37.71;94827.66;5062111;28;20036;-63
2021/04/08 11:41:11;;;;;;;0.20;0.20;;;;;;;20.85;37.17;94815.09;5058076;28;20021;-63
2021/04/08 11:43:51;;;;;;;0.43;0.30;;;;;;;21.01;37.54;94821.28;5060682;28;20016;-63
2021/04/08 11:46:28;;;;;;;0.65;0.20;;;;;;;21.14;37.19;94819.28;5022167;28;20109;-63
2021/04/08 11:48:56;;;;;;;0.70;0.20;;;;;;;21.23;36.33;94817.75;5025579;28;20025;-63
2021/04/08 11:51:27;;;;;;;0.10;0.10;;;;;;;21.36;36.87;94811.22;5050772;28;20116;-63
2021/04/08 11:53:55;;;;;;;0.20;0.20;;;;;;;21.41;36.26;94814.69;5033866;28;20057;-63
2021/04/08 11:56:32;;;;;;;0.60;0.20;;;;;;;21.52;36.47;94809.50;5038804;28;20043;-63
2021/04/08 11:59:11;;;;;;;0.80;0.13;;;;;;;21.58;36.53;94808.47;5024876;28;20045;-64
2021/04/08 12:01:39;;;;;;;0.20;0.20;;;;;;;21.62;35.96;94805.03;5045521;28;20044;-64
2021/04/08 12:04:20;;;;;;;0.20;0.20;;;;;;;21.71;36.25;94809.88;5025358;28;20031;-63
2021/04/08 12:06:47;;;;;;;0.20;0.20;;;;;;;21.75;35.44;94806.44;5016435;28;20051;-63
2021/04/08 12:09:13;;;;;;;0.68;0.20;;;;;;;21.79;35.31;94804.06;5022541;28;20120;-63
2021/04/08 12:11:50;;;;;;;0.20;0.20;;;;;;;21.85;35.84;94797.75;5079372;28;20107;-63
2021/04/08 12:14:18;;;;;;;0.45;0.20;;;;;;;21.86;35.40;94792.19;5035305;28;20048;-63
2021/04/08 12:16:43;;;;;;;0.20;0.20;;;;;;;21.91;35.16;94794.06;5031314;28;20041;-63
2021/04/08 12:19:09;;;;;;;0.17;0.17;;;;;;;21.93;35.34;94784.00;5044033;28;20025;-63
2021/04/08 12:21:34;;;;;;;0.20;0.20;;;;;;;21.96;34.94;94791.44;5016266;28;20070;-63
2021/04/08 12:24:08;;;;;;;0.10;0.10;;;;;;;22.01;35.57;94788.81;5040765;28;20037;-63
2021/04/08 12:26:34;;;;;;;1.08;0.20;;;;;;;22.03;34.96;94792.00;5033021;28;20313;-63
2021/04/08 12:29:01;;;;;;;0.13;0.10;;;;;;;22.05;35.02;94784.59;5035900;28;20033;-63
2021/04/08 12:31:29;;;;;;;0.20;0.20;;;;;;;22.07;34.90;94786.97;5047594;28;20032;-63
2021/04/08 12:33:55;;;;;;;0.30;0.30;;;;;;;22.08;34.68;94779.81;5019630;28;20029;-63
2021/04/08 12:36:21;;;;;;;0.20;0.20;;;;;;;22.10;34.95;94781.16;5035428;28;20071;-64
2021/04/08 12:38:47;;;;;;;0.20;0.20;;;;;;;22.11;34.98;94769.50;5017841;28;20452;-63
2021/04/08 12:41:16;;;;;;;0.10;0.10;;;;;;;22.13;34.90;94775.34;5034099;28;20032;-63
2021/04/08 12:43:42;;;;;;;0.77;0.20;;;;;;;22.13;34.61;94764.75;5030202;28;20028;-63
2021/04/08 12:46:07;;;;;;;0.20;0.20;;;;;;;22.14;34.46;94765.53;5033536;28;20032;-63
2021/04/08 12:48:35;;;;;;;0.10;0.10;;;;;;;22.15;34.59;94767.91;5015405;28;20033;-63
2021/04/08 12:51:01;;;;;;;0.20;0.20;;;;;;;22.16;34.51;94760.75;5033899;28;20088;-63
2021/04/08 12:53:27;;;;;;;0.17;0.10;;;;;;;22.16;34.26;94764.22;5047660;28;20123;-63
2021/04/08 12:55:53;;;;;;;0.10;0.10;;;;;;;22.17;34.49;94755.22;5048037;28;20329;-63
2021/04/08 12:58:19;;;;;;;0.20;0.20;;;;;;;22.18;34.36;94766.59;5003931;28;20053;-63
2021/04/08 13:00:44;;;;;;;0.30;0.20;;;;;;;22.18;34.36;94753.34;5016695;28;20040;-63
2021/04/08 13:03:10;;;;;;;0.25;0.20;;;;;;;22.19;34.12;94762.91;5010458;28;20052;-63
2021/04/08 13:05:39;;;;;;;0.28;0.20;;;;;;;22.22;34.85;94757.88;5018623;28;20082;-63
2021/04/08 13:08:05;;;;;;;0.20;0.20;;;;;;;22.22;34.36;94757.09;5017483;28;20035;-64
2021/04/08 13:10:31;;;;;;;0.20;0.20;;;;;;;22.21;34.12;94761.56;5033302;28;20021;-63
2021/04/08 13:12:59;;;;;;;0.50;0.20;;;;;;;22.22;34.16;94747.28;5037543;28;20075;-63
2021/04/08 13:15:24;;;;;;;0.20;0.20;;;;;;;22.23;33.90;94745.44;5030582;28;20044;-63
2021/04/08 13:17:51;;;;;;;0.25;0.20;;;;;;;22.22;33.97;94743.84;5044368;28;20116;-63
2021/04/08 13:20:24;;;;;;;0.20;0.20;;;;;;;22.24;34.45;94745.16;5014921;28;20039;-64
2021/04/08 13:22:52;;;;;;;0.20;0.20;;;;;;;22.22;34.12;94735.91;5013773;28;20022;-63
2021/04/08 13:25:19;;;;;;;0.20;0.20;;;;;;;22.25;34.06;94740.69;5003932;28;20083;-63
2021/04/08 13:27:47;;;;;;;0.50;0.20;;;;;;;22.24;34.15;94739.88;5048402;28;20025;-63
2021/04/08 13:30:14;;;;;;;1.33;0.20;;;;;;;22.25;34.24;94740.69;5047333;28;20119;-64
2021/04/08 13:32:39;;;;;;;0.10;0.10;;;;;;;22.23;33.95;94746.22;5032964;28;20372;-64
2021/04/08 13:35:05;;;;;;;0.20;0.20;;;;;;;22.24;33.83;94739.88;5019570;28;20158;-63
2021/04/08 13:37:32;;;;;;;0.20;0.20;;;;;;;22.25;34.20;94730.88;5039207;28;20111;-63
2021/04/08 13:39:59;;;;;;;0.20;0.20;;;;;;;22.24;34.23;94734.56;5025490;28;20326;-63
2021/04/08 13:42:24;;;;;;;0.43;0.20;;;;;;;22.24;34.03;94731.91;5041362;28;20028;-63
2021/04/08 13:44:50;;;;;;;0.10;0.10;;;;;;;22.24;33.89;94729.28;5016746;28;20036;-63
2021/04/08 13:47:16;;;;;;;0.10;0.10;;;;;;;22.24;34.01;94729.28;5020690;28;20056;-63
2021/04/08 13:49:41;;;;;;;0.20;0.20;;;;;;;22.24;33.69;94731.91;5024632;28;20034;-63
2021/04/08 13:52:07;;;;;;;0.20;0.20;;;;;;;22.25;33.89;94722.16;5031022;28;20063;-63
2021/04/08 13:54:37;;;;;;;0.10;0.10;;;;;;;22.28;34.30;94726.13;5007213;28;20112;-63
2021/04/08 13:57:02;;;;;;;0.10;0.10;;;;;;;22.26;34.05;94726.41;5013448;28;20040;-64
2021/04/08 13:59:28;;;;;;;0.10;0.10;;;;;;;22.26;33.68;94710.50;5020072;28;20021;-62
2021/04/08 14:01:53;;;;;;;0.13;0.13;;;;;;;22.27;33.60;94708.63;5019801;28;20041;-63
2021/04/08 14:04:19;;;;;;;0.20;0.20;;;;;;;22.25;33.83;94707.03;5041646;28;20083;-63
2021/04/08 14:06:44;;;;;;;0.73;0.20;;;;;;;22.25;33.61;94700.94;5032901;28;20036;-63
2021/04/08 14:09:10;;;;;;;0.30;0.10;;;;;;;22.26;33.55;94705.22;5019412;28;20032;-63
2021/04/08 14:11:36;;;;;;;0.22;0.10;;;;;;;22.25;33.82;94707.03;5027462;28;20048;-63
2021/04/08 14:14:02;;;;;;;0.10;0.10;;;;;;;22.25;33.68;94699.09;5042358;28;20029;-61
2021/04/08 14:16:30;;;;;;;0.20;0.20;;;;;;;22.25;33.53;94693.78;5014186;28;20052;-62
2021/04/08 14:18:58;;;;;;;0.20;0.20;;;;;;;22.28;34.18;94686.41;5033507;28;20052;-64
2021/04/08 14:21:23;;;;;;;0.45;0.28;;;;;;;22.27;33.65;94684.81;5033848;28;20068;-63
2021/04/08 14:23:50;;;;;;;0.10;0.10;;;;;;;22.26;33.89;94681.38;5026139;28;20108;-63
2021/04/08 14:26:15;;;;;;;0.10;0.10;;;;;;;22.27;33.89;94685.59;5012078;28;20032;-63
2021/04/08 14:28:41;;;;;;;0.13;0.13;;;;;;;22.27;34.06;94685.59;5038524;28;20029;-63
2021/04/08 14:31:08;;;;;;;0.45;0.20;;;;;;;22.28;33.77;94681.91;5024713;28;20033;-64
2021/04/08 14:33:34;;;;;;;0.28;0.20;;;;;;;22.28;33.75;94684.53;5036223;28;20028;-63
2021/04/08 14:36:00;;;;;;;0.20;0.20;;;;;;;22.28;33.63;94681.09;5045346;28;20032;-63
2021/04/08 14:38:26;;;;;;;0.38;0.20;;;;;;;22.29;34.04;94680.03;5026007;28;20112;-62
2021/04/08 14:40:52;;;;;;;0.43;0.30;;;;;;;22.29;33.77;94677.38;5024234;28;20048;-63
2021/04/08 14:43:17;;;;;;;0.80;0.28;;;;;;;22.28;33.59;94679.25;5023657;28;20024;-63
2021/04/08 14:45:43;;;;;;;0.20;0.20;;;;;;;22.27;33.37;94672.34;5018627;28;20306;-63
2021/04/08 14:48:09;;;;;;;0.20;0.20;;;;;;;22.28;33.75;94665.22;5013683;28;20029;-63
2021/04/08 14:50:35;;;;;;;0.20;0.20;;;;;;;22.27;33.68;94666.25;5041794;28;20057;-63
2021/04/08 14:53:01;;;;;;;0.20;0.20;;;;;;;22.27;33.54;94668.91;5025557;28;20025;-63
2021/04/08 14:55:27;;;;;;;0.20;0.20;;;;;;;22.27;33.54;94664.38;5023987;28;20076;-63
2021/04/08 14:57:53;;;;;;;0.38;0.20;;;;;;;22.27;33.44;94658.31;5021161;28;20029;-63
2021/04/08 15:00:21;;;;;;;0.10;0.10;;;;;;;22.27;33.65;94659.09;5029828;28;20037;-63
2021/04/08 15:02:47;;;;;;;0.20;0.20;;;;;;;22.27;33.65;94653.78;5036935;28;20089;-63
2021/04/08 15:05:14;;;;;;;0.10;0.10;;;;;;;22.29;33.45;94658.84;5013251;28;20132;-63
2021/04/08 15:07:39;;;;;;;0.10;0.10;;;;;;;22.27;33.60;94653.00;5019964;28;20072;-63
2021/04/08 15:10:06;;;;;;;1.00;0.30;;;;;;;22.28;34.13;94651.97;5007935;28;20080;-64
2021/04/08 15:12:32;;;;;;;0.20;0.20;;;;;;;22.28;33.96;94649.31;5041379;28;20045;-63
2021/04/08 15:15:02;;;;;;;0.20;0.20;;;;;;;22.30;33.86;94647.19;5020841;28;20091;-63
2021/04/08 15:17:28;;;;;;;0.10;0.10;;;;;;;22.28;34.17;94638.72;5021666;28;20040;-63
2021/04/08 15:19:57;;;;;;;0.30;0.25;;;;;;;22.29;33.85;94643.72;5047528;28;20044;-63
2021/04/08 15:22:24;;;;;;;0.52;0.25;;;;;;;22.28;34.05;94641.38;5023447;28;20116;-63
2021/04/08 15:24:53;;;;;;;0.28;0.28;;;;;;;22.30;34.13;94637.38;5003025;28;20079;-63
2021/04/08 15:27:21;;;;;;;0.57;0.25;;;;;;;22.29;33.64;94635.00;5027496;28;20082;-63
2021/04/08 15:29:48;;;;;;;0.30;0.30;;;;;;;22.31;33.65;94636.31;5029714;28;20032;-63
2021/04/08 15:32:14;;;;;;;0.20;0.20;;;;;;;22.28;33.83;94634.22;5031088;28;20063;-63
2021/04/08 15:34:46;;;;;;;0.25;0.25;;;;;;;22.32;34.10;94632.63;5001727;28;20051;-63
2021/04/08 15:37:12;;;;;;;0.10;0.10;;;;;;;22.29;33.78;94624.41;5021052;28;20065;-63
2021/04/08 15:39:38;;;;;;;0.20;0.20;;;;;;;22.29;33.46;94625.19;5001548;28;20029;-63
2021/04/08 15:42:07;;;;;;;0.55;0.20;;;;;;;22.32;34.01;94635.25;5027260;28;20074;-62
2021/04/08 15:44:33;;;;;;;0.20;0.20;;;;;;;22.30;33.80;94633.94;5044313;28;20086;-63
2021/04/08 15:47:01;;;;;;;0.20;0.20;;;;;;;22.30;33.80;94629.44;5013770;28;20104;-63
2021/04/08 15:49:30;;;;;;;0.17;0.17;;;;;;;22.31;33.76;94623.06;5044400;28;20025;-63
2021/04/08 15:51:56;;;;;;;0.93;0.17;;;;;;;22.30;33.44;94623.34;5053435;28;20041;-64
2021/04/08 15:54:21;;;;;;;0.20;0.20;;;;;;;22.27;33.41;94624.66;5016419;28;20078;-63
2021/04/08 15:56:47;;;;;;;0.35;0.20;;;;;;;22.29;33.63;94627.03;5014664;28;20057;-63
2021/04/08 15:59:12;;;;;;;0.20;0.20;;;;;;;22.30;33.63;94628.66;5026942;28;20059;-63
2021/04/08 16:01:38;;;;;;;0.20;0.20;;;;;;;22.30;33.30;94626.00;5027648;28;20029;-63
2021/04/08 16:04:03;;;;;;;0.20;0.20;;;;;;;22.28;33.41;94618.31;5039014;28;20147;-64
2021/04/08 16:06:31;;;;;;;0.10;0.10;;;;;;;22.29;33.54;94621.75;5030380;28;20092;-63
2021/04/08 16:08:57;;;;;;;0.20;0.20;;;;;;;22.26;33.35;94623.09;5033944;28;20028;-63
2021/04/08 16:11:23;;;;;;;0.20;0.20;;;;;;;22.29;33.35;94621.75;5033372;28;20044;-63
2021/04/08 16:13:48;;;;;;;0.30;0.20;;;;;;;22.28;33.63;94626.25;5045057;28;20388;-63
2021/04/08 16:16:16;;;;;;;0.20;0.20;;;;;;;22.29;33.39;94624.41;5040907;28;20036;-63
2021/04/08 16:18:41;;;;;;;0.20;0.20;;;;;;;22.29;33.24;94621.75;5013491;28;20040;-64
2021/04/08 16:21:07;;;;;;;0.25;0.20;;;;;;;22.29;33.19;94613.81;5028116;28;20028;-63
2021/04/08 16:23:33;;;;;;;0.15;0.15;;;;;;;22.30;33.64;94612.75;5036431;28;20017;-63
2021/04/08 16:25:59;;;;;;;0.20;0.20;;;;;;;22.28;33.35;94618.31;5007630;28;20155;-64
2021/04/08 16:28:24;;;;;;;0.10;0.10;;;;;;;22.28;33.38;94618.31;5015040;28;20037;-63
2021/04/08 16:30:51;;;;;;;0.22;0.20;;;;;;;22.29;33.17;94613.81;5042367;28;20188;-63
2021/04/08 16:33:17;;;;;;;0.20;0.20;;;;;;;22.29;33.46;94609.28;5008006;28;20028;-63
2021/04/08 16:35:44;;;;;;;0.25;0.25;;;;;;;22.29;33.32;94611.94;5022605;28;20045;-63
2021/04/08 16:38:10;;;;;;;0.20;0.20;;;;;;;22.29;33.38;94603.19;5005752;28;20037;-64
2021/04/08 16:40:36;;;;;;;0.98;0.20;;;;;;;22.28;33.61;94607.72;5038279;28;20017;-64
2021/04/08 16:43:01;;;;;;;0.30;0.20;;;;;;;22.29;33.52;94605.84;5021980;28;20052;-64
2021/04/08 16:45:30;;;;;;;0.55;0.20;;;;;;;22.29;33.80;94608.50;5033212;28;20046;-64
2021/04/08 16:48:03;;;;;;;0.47;0.30;;;;;;;22.32;34.10;94613.28;5012847;28;20044;-64
2021/04/08 16:50:28;;;;;;;0.20;0.20;;;;;;;22.29;33.50;94603.19;5035637;28;20029;-64
2021/04/08 16:52:56;;;;;;;0.20;0.20;;;;;;;22.30;33.52;94602.16;5012224;28;20033;-64
2021/04/08 16:55:24;;;;;;;0.28;0.20;;;;;;;22.29;33.59;94597.91;5036114;28;20053;-63
2021/04/08 16:57:49;;;;;;;0.40;0.20;;;;;;;22.31;33.58;94603.72;5040247;28;20037;-64
2021/04/08 17:00:15;;;;;;;0.25;0.25;;;;;;;22.30;33.46;94596.84;5024629;28;20021;-65
2021/04/08 17:02:41;;;;;;;0.20;0.20;;;;;;;22.31;33.49;94595.78;5024860;28;20037;-64
2021/04/08 17:05:07;;;;;;;0.20;0.20;;;;;;;22.30;33.52;94594.22;4991495;28;62458;-64
2021/04/08 17:07:33;;;;;;;0.20;0.20;;;;;;;22.31;33.20;94593.13;4936442;28;20115;-64
2021/04/08 17:09:59;;;;;;;0.20;0.20;;;;;;;22.31;33.19;94588.63;4971240;28;20035;-64
2021/04/08 17:12:25;;;;;;;0.55;0.20;;;;;;;22.31;33.18;94595.78;4964176;28;20023;-64
2021/04/08 17:14:52;;;;;;;0.15;0.15;;;;;;;22.32;33.43;94586.78;4966870;28;20070;-63
2021/04/08 17:17:23;;;;;;;0.20;0.20;;;;;;;22.33;33.52;94580.41;4954386;28;20062;-64
2021/04/08 17:19:48;;;;;;;0.10;0.10;;;;;;;22.32;33.11;94592.09;4965070;28;20130;-64
2021/04/08 17:22:19;;;;;;;0.10;0.10;;;;;;;22.30;33.26;94583.63;4955258;28;20031;-64
2021/04/08 17:24:45;;;;;;;;;;;;;;;22.37;34.22;94581.47;4967641;28;20085;-63
2021/04/08 17:27:11;;;;;;;0.10;0.10;;;;;;;22.38;33.30;94588.38;4951053;28;19989;-64
2021/04/08 17:29:38;;;;;;;0.20;0.10;;;;;;;22.36;33.34;94587.84;4950082;28;20027;-64
2021/04/08 17:32:04;;;;;;;0.95;0.20;;;;;;;22.33;33.07;94583.06;4962813;28;20031;-64
2021/04/08 17:34:29;;;;;;;0.25;0.20;;;;;;;22.29;33.00;94577.50;4953095;28;20030;-64
2021/04/08 17:36:55;;;;;;;0.17;0.17;;;;;;;22.32;33.28;94581.50;4948778;28;20034;-65
2021/04/08 17:39:20;;;;;;;0.15;0.15;;;;;;;22.31;33.20;94585.97;4979316;28;20043;-64
2021/04/08 17:41:50;;;;;;;0.20;0.20;;;;;;;22.34;33.19;94585.44;4948201;28;20038;-64
2021/04/08 17:44:21;;;;;;;0.20;0.20;;;;;;;22.31;33.12;94591.28;4985530;28;20026;-63
2021/04/08 17:46:47;;;;;;;0.20;0.20;;;;;;;22.32;33.29;94586.78;4991093;28;20038;-64
2021/04/08 17:49:12;;;;;;;0.20;0.20;;;;;;;22.30;33.02;94579.09;4984434;28;20026;-64
2021/04/08 17:51:38;;;;;;;0.10;0.10;;;;;;;22.31;32.83;94579.88;4968702;28;20033;-64
2021/04/08 17:54:04;;;;;;;0.28;0.20;;;;;;;22.31;33.08;94580.66;4958784;28;20077;-64
2021/04/08 17:56:30;;;;;;;0.20;0.20;;;;;;;22.32;33.18;94568.25;4987159;28;20065;-72
2021/04/08 17:58:56;;;;;;;0.10;0.10;;;;;;;22.38;33.27;94570.59;4973819;28;20069;-66
2021/04/08 18:01:22;;;;;;;0.20;0.20;;;;;;;22.42;32.89;94576.16;4973843;28;20038;-67
2021/04/08 18:03:50;;;;;;;0.20;0.20;;;;;;;22.45;33.04;94581.72;4957466;28;20038;-62
2021/04/08 18:06:15;;;;;;;0.20;0.20;;;;;;;22.48;33.33;94579.59;4969519;28;20035;-61
2021/04/08 18:08:41;;;;;;;0.20;0.20;;;;;;;22.49;33.13;94582.00;4972655;28;20058;-62
2021/04/08 18:11:06;;;;;;;0.10;0.10;;;;;;;22.51;33.11;94587.81;4956833;28;20039;-62
2021/04/08 18:13:33;;;;;;;0.93;0.20;;;;;;;22.56;33.29;94587.00;4935515;28;20023;-62
2021/04/08 18:15:58;;;;;;;0.20;0.20;;;;;;;22.57;32.91;94589.38;4951488;28;20213;-62
2021/04/08 18:18:24;;;;;;;0.70;0.30;;;;;;;22.57;33.04;94578.00;4954349;28;20041;-61
2021/04/08 18:20:50;;;;;;;0.20;0.10;;;;;;;22.58;33.01;94571.63;4952374;28;20039;-62
2021/04/08 18:23:15;;;;;;;0.22;0.20;;;;;;;22.59;32.99;94571.34;4953240;28;20023;-62
2021/04/08 18:25:41;;;;;;;0.28;0.25;;;;;;;22.64;33.05;94576.66;4938074;28;20034;-62
2021/04/08 18:28:06;;;;;;;1.35;0.70;;;;;;;22.53;32.12;94576.94;4962058;28;20050;-64
2021/04/08 18:30:32;;;;;;;1.23;0.50;;;;;;;21.48;32.42;94563.94;4969941;28;20046;-58
2021/04/08 18:32:57;;;;;;;1.52;0.60;;;;;;;20.82;33.61;94561.84;4969916;28;20045;-58
2021/04/08 18:35:26;;;;;;;1.27;0.63;;;;;;;20.43;34.09;94564.78;4970778;28;20043;-58
2021/04/08 18:37:52;;;;;;;2.08;0.70;;;;;;;20.12;34.59;94566.41;4959018;28;20114;-59
2021/04/08 18:40:18;;;;;;;0.65;0.40;;;;;;;19.95;35.00;94565.78;4960878;28;20046;-58
2021/04/08 18:42:45;;;;;;;0.90;0.60;;;;;;;19.77;35.12;94559.03;4962030;28;20035;-58
2021/04/08 18:45:11;;;;;;;0.75;0.40;;;;;;;19.66;35.45;94572.09;4957432;28;20102;-58
2021/04/08 18:47:37;;;;;;;0.75;0.50;;;;;;;19.59;35.51;94570.69;4954191;28;20063;-58
2021/04/08 18:50:04;;;;;;;2.15;0.50;;;;;;;19.48;35.65;94567.97;4944562;28;20129;-57
2021/04/08 18:52:29;;;;;;;1.48;0.57;;;;;;;19.42;35.80;94565.53;4951764;28;20057;-58
2021/04/08 18:54:56;;;;;;;4.45;0.70;;;;;;;19.35;35.87;94565.72;4935985;28;20027;-57
2021/04/08 18:57:24;;;;;;;1.27;0.60;;;;;;;19.32;35.84;94568.84;4968205;28;20058;-59
2021/04/08 18:59:51;;;;;;;0.88;0.55;;;;;;;19.25;35.85;94561.16;4949808;28;20019;-58
2021/04/08 19:02:16;;;;;;;1.40;0.40;;;;;;;19.21;36.10;94565.34;4944670;28;20107;-57
2021/04/08 19:04:42;;;;;;;1.95;0.68;;;;;;;19.21;36.01;94565.34;4924599;28;20047;-58
2021/04/08 19:07:07;;;;;;;2.22;0.60;;;;;;;19.17;36.18;94563.41;4970092;28;20061;-58
2021/04/08 19:09:33;;;;;;;1.30;0.60;;;;;;;19.18;36.20;94570.31;4970283;28;20046;-58
2021/04/08 19:11:59;;;;;;;1.75;0.77;;;;;;;19.16;36.25;94573.19;4954489;28;20054;-57
2021/04/08 19:14:25;;;;;;;0.85;0.70;;;;;;;19.14;36.20;94567.34;4955047;28;20060;-58
2021/04/08 19:16:52;;;;;;;0.70;0.50;;;;;;;19.12;36.20;94570.22;4955402;28;20046;-57
2021/04/08 19:19:18;;;;;;;1.38;0.70;;;;;;;19.11;36.31;94570.47;4940078;28;20035;-58
2021/04/08 19:21:44;;;;;;;1.20;0.50;;;;;;;19.09;36.34;94573.34;4939938;28;20037;-58
2021/04/08 19:24:09;;;;;;;1.33;0.70;;;;;;;19.07;36.17;94570.16;4941725;28;20018;-58
2021/04/08 19:26:35;;;;;;;0.80;0.60;;;;;;;19.06;36.23;94573.88;4976006;28;20034;-57
2021/04/08 19:29:02;;;;;;;1.10;0.60;;;;;;;19.07;36.14;94570.16;4974558;28;20033;-58
2021/04/08 19:31:28;;;;;;;0.73;0.40;;;;;;;19.06;36.26;94568.59;4949000;28;20048;-58
2021/04/08 19:33:54;;;;;;;0.50;0.50;;;;;;;19.05;36.35;94571.47;4962977;28;20051;-58
2021/04/08 19:36:19;;;;;;;1.02;0.52;;;;;;;19.00;36.28;94561.69;4958535;28;20035;-58
2021/04/08 19:38:46;;;;;;;0.50;0.40;;;;;;;19.01;36.30;94560.63;4973960;28;20027;-59
2021/04/08 19:41:13;;;;;;;0.82;0.50;;;;;;;19.07;36.15;94575.44;4982964;28;20110;-57
2021/04/08 19:43:39;;;;;;;0.40;0.40;;;;;;;19.03;36.27;94563.00;4974863;28;20027;-58
2021/04/08 19:46:12;;;;;;;0.60;0.50;;;;;;;19.02;36.53;94562.22;4931154;28;20050;-57
2021/04/08 19:48:38;;;;;;;1.50;0.50;;;;;;;19.06;36.42;94567.81;4968194;28;20089;-59
2021/04/08 19:51:03;;;;;;;0.50;0.40;;;;;;;19.00;36.00;94560.84;4960016;28;20054;-58
2021/04/08 19:53:29;;;;;;;0.57;0.40;;;;;;;19.02;36.21;94570.13;4952143;29;20027;-58
2021/04/08 19:55:55;;;;;;;0.60;0.40;;;;;;;19.06;36.20;94576.50;4934985;28;20031;-58
2021/04/08 19:58:20;;;;;;;1.25;0.50;;;;;;;19.06;36.34;94565.97;4959274;28;20133;-58
2021/04/08 20:00:46;;;;;;;0.40;0.40;;;;;;;19.04;36.32;94564.59;4944141;28;20039;-58
2021/04/08 20:03:12;;;;;;;1.25;0.50;;;;;;;19.05;36.28;94559.06;4974426;28;20019;-58
2021/04/08 20:05:39;;;;;;;0.57;0.50;;;;;;;18.99;36.24;94544.25;4975572;28;20038;-57
2021/04/08 20:08:05;;;;;;;0.40;0.40;;;;;;;19.05;36.31;94566.97;4931799;28;20059;-58
2021/04/08 20:10:31;;;;;;;0.40;0.40;;;;;;;19.05;36.22;94564.34;4986787;28;20141;-58
2021/04/08 20:12:56;;;;;;;1.70;1.20;;;;;;;19.01;36.23;94550.06;4992795;28;20115;-56
2021/04/08 20:15:22;;;;;;;0.90;0.40;;;;;;;19.02;41.48;94554.31;4957036;28;20046;-68
2021/04/08 20:17:47;;;;;;;0.30;0.30;;;;;;;19.30;38.13;94552.50;4947744;28;20043;-64
2021/04/08 20:20:13;;;;;;;0.10;0.10;;;;;;;19.76;37.16;94562.72;4948445;28;20043;-67
2021/04/08 20:22:39;;;;;;;0.10;0.10;;;;;;;20.15;36.69;94560.66;4966724;28;20031;-67
2021/04/08 20:25:07;;;;;;;0.10;0.10;;;;;;;20.46;35.96;94556.34;4951515;28;20042;-67
2021/04/08 20:27:37;;;;;;;0.20;0.20;;;;;;;20.76;35.96;94549.66;4972500;28;20117;-66
2021/04/08 20:30:03;;;;;;;;;;;;;;;20.97;35.54;94555.03;4961159;28;20281;-67
2021/04/08 20:32:29;;;;;;;0.10;0.10;;;;;;;21.15;35.17;94549.28;4993950;28;20030;-67
2021/04/08 20:34:54;;;;;;;0.10;0.10;;;;;;;21.29;35.06;94547.72;4953498;28;20047;-67
2021/04/08 20:37:20;;;;;;;0.22;0.17;;;;;;;21.40;34.74;94548.56;4958229;28;20030;-67
2021/04/08 20:39:46;;;;;;;0.10;0.10;;;;;;;21.54;34.46;94550.72;4990770;28;20026;-68
2021/04/08 20:42:13;;;;;;;0.10;0.10;;;;;;;21.61;34.31;94544.13;4975551;28;20034;-66
2021/04/08 20:44:38;;;;;;;0.10;0.10;;;;;;;21.71;34.23;94553.91;4968891;28;20041;-67
2021/04/08 20:47:04;;;;;;;0.20;0.20;;;;;;;21.78;34.32;94543.06;4968495;28;20034;-67
2021/04/08 20:49:29;;;;;;;0.10;0.10;;;;;;;21.85;33.86;94547.03;4961177;28;20069;-66
2021/04/08 20:51:56;;;;;;;0.57;0.40;;;;;;;21.87;32.25;94533.53;4984396;28;20034;-68
2021/04/08 20:54:21;;;;;;;0.65;0.30;;;;;;;21.91;32.14;94534.59;4949423;28;20109;-68
2021/04/08 20:56:47;;;;;;;2.15;0.60;;;;;;;21.95;31.74;94529.56;4958062;28;20026;-68
2021/04/08 20:59:12;;;;;;;1.60;0.60;;;;;;;21.99;31.75;94535.91;4962308;28;20038;-68
2021/04/08 21:01:40;;;;;;;0.60;0.50;;;;;;;22.01;31.65;94534.59;4977056;28;20070;-68
2021/04/08 21:04:05;;;;;;;1.15;0.47;;;;;;;22.00;31.36;94521.63;4974419;28;20026;-68
2021/04/08 21:06:31;;;;;;;0.85;0.45;;;;;;;22.02;31.33;94530.09;4957255;28;20081;-69
2021/04/08 21:08:57;;;;;;;0.95;0.40;;;;;;;22.02;31.41;94535.38;4953946;28;20037;-68
2021/04/08 21:11:23;;;;;;;2.17;0.45;;;;;;;22.01;31.37;94524.00;4977882;28;20026;-68
2021/04/08 21:13:49;;;;;;;1.50;0.40;;;;;;;21.98;31.39;94529.81;4964300;28;20019;-68
2021/04/08 21:16:14;;;;;;;1.65;0.40;;;;;;;21.99;31.30;94527.97;4976405;28;20037;-68
2021/04/08 21:18:42;;;;;;;1.42;0.47;;;;;;;21.98;31.07;94529.03;4957055;28;20030;-68
2021/04/08 21:21:08;;;;;;;1.48;0.30;;;;;;;21.98;30.91;94531.69;4974641;28;20030;-68
2021/04/08 21:23:34;;;;;;;0.98;0.40;;;;;;;21.97;30.93;94527.44;4981253;28;20035;-68
2021/04/08 21:26:00;;;;;;;3.78;0.40;;;;;;;21.95;31.06;94524.25;4974259;28;20053;-68
2021/04/08 21:28:27;;;;;;;0.40;0.30;;;;;;;21.95;31.26;94521.63;4961713;28;20030;-68
2021/04/08 21:30:52;;;;;;;1.48;0.40;;;;;;;21.94;31.25;94528.00;4958331;28;20042;-68
2021/04/08 21:33:18;;;;;;;1.10;0.40;;;;;;;21.94;31.23;94523.47;4967911;28;20038;-68
2021/04/08 21:35:52;;;;;;;1.00;0.50;;;;;;;21.95;31.31;94522.44;4993551;28;20042;-68
2021/04/08 21:38:18;;;;;;;0.38;0.38;;;;;;;21.92;31.26;94522.94;4957814;28;20022;-68
2021/04/08 21:40:44;;;;;;;0.77;0.40;;;;;;;21.91;31.19;94524.00;4958196;28;20042;-68
2021/04/08 21:43:09;;;;;;;0.82;0.30;;;;;;;21.92;30.99;94522.16;4951749;28;20029;-68
2021/04/08 21:45:36;;;;;;;2.08;0.43;;;;;;;21.91;30.83;94520.56;4976632;28;20046;-68
2021/04/08 21:48:02;;;;;;;0.47;0.35;;;;;;;21.90;30.88;94519.00;4957874;28;20082;-68
2021/04/08 21:50:27;;;;;;;1.02;0.38;;;;;;;21.85;31.04;94504.66;4958746;28;20143;-68
2021/04/08 21:52:53;;;;;;;0.57;0.40;;;;;;;21.90;31.21;94516.34;4992720;28;20068;-68
2021/04/08 21:55:19;;;;;;;1.02;0.40;;;;;;;21.88;31.15;94513.16;4961195;28;20041;-68
2021/04/08 21:57:44;;;;;;;0.73;0.40;;;;;;;21.88;31.04;94519.25;4984895;28;20027;-68
2021/04/08 22:00:19;;;;;;;2.45;0.40;;;;;;;21.90;30.95;94503.09;4976131;28;20036;-68
2021/04/08 22:02:44;;;;;;;1.05;0.40;;;;;;;21.89;30.87;94509.44;4957735;28;20023;-68
2021/04/08 22:05:12;;;;;;;0.50;0.40;;;;;;;21.89;31.05;94507.59;4976522;28;20038;-68
2021/04/08 22:07:38;;;;;;;0.93;0.40;;;;;;;21.88;30.92;94502.59;4976144;28;20141;-68
2021/04/08 22:10:07;;;;;;;0.75;0.40;;;;;;;21.90;31.25;94506.53;4992279;28;20047;-68
2021/04/08 22:12:32;;;;;;;0.60;0.40;;;;;;;21.88;31.06;94494.63;4989382;28;20030;-68
2021/04/08 22:14:58;;;;;;;1.45;0.40;;;;;;;21.89;31.05;94496.22;4975581;28;20037;-68
2021/04/08 22:17:28;;;;;;;1.15;0.50;;;;;;;21.90;30.84;94495.94;4992111;28;20014;-68
2021/04/08 22:19:56;;;;;;;0.50;0.40;;;;;;;21.89;30.98;94493.56;4976708;28;20045;-68
2021/04/08 22:22:21;;;;;;;0.45;0.30;;;;;;;21.88;30.70;94494.63;4975525;28;20045;-68
2021/04/08 22:24:53;;;;;;;0.90;0.50;;;;;;;21.90;31.08;94500.47;4994109;28;20030;-68
2021/04/08 22:27:18;;;;;;;1.42;0.32;;;;;;;21.90;31.25;94505.75;4975645;28;20049;-68
2021/04/08 22:29:44;;;;;;;1.48;0.47;;;;;;;21.89;30.88;94498.84;4992490;28;20030;-68
2021/04/08 22:32:14;;;;;;;0.50;0.40;;;;;;;21.90;30.83;94498.59;4985848;28;20049;-68
2021/04/08 22:34:39;;;;;;;1.48;0.40;;;;;;;21.88;30.80;94499.94;4974551;28;20070;-68